Terminal Aerodrome Forecast
Issued by NWS Omaha/Valley, NE

Home | Current Version | Previous Version | Text Only | Print | Product List | Glossary Off
Versions: 1 2 3 4 5 6 7 8 9 10 11 12 13 14 15 16 17 18 19 20 21 22 23 24 25 26 27 28 29 30 31 32 33 34 35 36 37 38 39 40 41 42 43 44 45 46 47 48

825
FTUS43 KOAX 231408 AAA
TAFOFK
TAF AMD
KOFK 231408Z 2314/2412 VRB06KT P6SM BKN015 BKN250
      TEMPO 2314/2317 BKN007
     FM231700 04005KT P6SM SCT020 BKN250
     FM231900 17010G19KT P6SM BKN150
     FM232300 16009KT P6SM BKN120=

USA.gov is the U.S. government's official web portal to all federal, state and local government web resources and services.